Time;durP1;ratioP1;P1;durP2;ratioP2;P2;SDS_P1;SDS_P2;PMS_P1;PMS_P2;Temp;Humidity;BMP_temperature;BMP_pressure;BME280_temperature;BME280_humidity;BME280_pressure;Samples;Min_cycle;Max_cycle;Signal;HPM_P1;HPM_P2
2021/05/08 00:01:56;;;;;;;0.73;0.73;;;;;;;3.76;98.03;100571.88;5024561;28;20795;-50
2021/05/08 00:04:22;;;;;;;0.30;0.20;;;;;;;3.72;98.67;100571.88;5015002;28;20445;-49
2021/05/08 00:06:49;;;;;;;0.30;0.20;;;;;;;4.03;97.48;100567.59;5007225;28;20452;-52
2021/05/08 00:09:15;;;;;;;0.30;0.20;;;;;;;3.91;97.56;100573.69;5015954;28;20459;-49
2021/05/08 00:11:41;;;;;;;0.30;0.20;;;;;;;3.61;97.85;100568.34;5015972;28;20468;-49
2021/05/08 00:14:08;;;;;;;0.30;0.20;;;;;;;3.54;98.28;100577.91;5016064;28;20550;-49
2021/05/08 00:16:34;;;;;;;0.30;0.20;;;;;;;3.40;99.57;100574.34;5015748;28;20452;-50
2021/05/08 00:19:01;;;;;;;0.30;0.20;;;;;;;3.47;99.58;100574.41;5012840;28;20938;-49
2021/05/08 00:21:27;;;;;;;0.30;0.20;;;;;;;3.37;100.00;100588.34;5007000;28;21009;-49
2021/05/08 00:23:54;;;;;;;0.30;0.10;;;;;;;3.30;100.00;100570.81;5002408;28;20456;-49
2021/05/08 00:26:20;;;;;;;0.30;0.20;;;;;;;3.20;100.00;100574.25;5015701;28;20969;-49
2021/05/08 00:28:46;;;;;;;0.40;0.40;;;;;;;3.26;99.85;100569.03;5015491;28;20457;-51
2021/05/08 00:31:12;;;;;;;0.30;0.20;;;;;;;3.15;100.00;100565.44;5015857;28;20468;-49
2021/05/08 00:33:38;;;;;;;0.30;0.20;;;;;;;3.21;100.00;100571.63;5015033;28;20489;-50
2021/05/08 00:36:06;;;;;;;0.30;0.20;;;;;;;3.26;100.00;100564.66;5015644;28;20453;-49
2021/05/08 00:38:32;;;;;;;0.30;0.17;;;;;;;3.32;100.00;100573.44;5015355;28;20520;-49
2021/05/08 00:40:58;;;;;;;0.30;0.20;;;;;;;3.27;100.00;100571.66;5015149;28;20523;-49
2021/05/08 00:43:24;;;;;;;0.30;0.10;;;;;;;3.38;99.93;100566.47;5015510;28;20459;-49
2021/05/08 00:45:50;;;;;;;0.30;0.10;;;;;;;3.14;100.00;100561.94;5015582;28;20457;-49
2021/05/08 00:48:17;;;;;;;0.30;0.20;;;;;;;3.06;100.00;100558.41;5010462;28;20798;-49
2021/05/08 00:50:43;;;;;;;0.30;0.20;;;;;;;3.06;100.00;100553.16;5006736;28;20475;-49
2021/05/08 00:53:09;;;;;;;0.30;0.10;;;;;;;2.97;100.00;100553.97;5015384;28;20491;-49
2021/05/08 00:55:39;;;;;;;0.30;0.20;;;;;;;3.13;100.00;100554.94;5015279;28;20492;-50
2021/05/08 00:58:07;;;;;;;0.30;0.17;;;;;;;3.04;100.00;100554.03;5001827;28;20449;-49
2021/05/08 01:00:34;;;;;;;0.30;0.10;;;;;;;2.96;100.00;100553.97;5015053;28;20527;-51
2021/05/08 01:03:00;;;;;;;0.30;0.20;;;;;;;2.96;100.00;100549.59;5001579;28;20508;-49
2021/05/08 01:05:28;;;;;;;0.30;0.20;;;;;;;2.69;100.00;100554.66;4991172;28;20459;-49
2021/05/08 01:07:55;;;;;;;0.30;0.20;;;;;;;2.69;100.00;100549.41;5014985;28;20453;-49
2021/05/08 01:10:21;;;;;;;0.30;0.20;;;;;;;2.83;100.00;100560.00;5014498;28;20531;-49
2021/05/08 01:12:47;;;;;;;0.30;0.20;;;;;;;2.53;100.00;100553.66;5014989;28;20976;-49
2021/05/08 01:15:14;;;;;;;0.30;0.20;;;;;;;2.48;100.00;100550.13;5014588;28;20985;-50
2021/05/08 01:17:41;;;;;;;0.30;0.20;;;;;;;2.46;100.00;100550.97;5014540;28;20456;-49
2021/05/08 01:20:10;;;;;;;0.30;0.20;;;;;;;2.41;100.00;100558.81;5000987;28;20470;-49
2021/05/08 01:22:37;;;;;;;1.07;1.07;;;;;;;2.60;100.00;100549.31;5014655;28;20475;-49
2021/05/08 01:25:09;;;;;;;0.30;0.10;;;;;;;2.63;100.00;100555.50;5014283;28;20456;-49
2021/05/08 01:27:42;;;;;;;0.30;0.20;;;;;;;2.65;100.00;100547.63;5015293;28;20444;-50
2021/05/08 01:30:09;;;;;;;0.30;0.20;;;;;;;2.66;100.00;100557.25;5014337;28;20980;-49
2021/05/08 01:32:35;;;;;;;0.30;0.13;;;;;;;2.56;100.00;100556.31;5014498;28;20459;-49
2021/05/08 01:35:02;;;;;;;0.30;0.20;;;;;;;2.48;100.00;100546.63;5014181;28;20542;-48
2021/05/08 01:37:28;;;;;;;0.30;0.20;;;;;;;2.67;100.00;100554.66;5013975;28;20452;-49
2021/05/08 01:39:54;;;;;;;0.30;0.10;;;;;;;2.60;100.00;100546.69;5013924;28;20535;-49
2021/05/08 01:42:20;;;;;;;0.30;0.10;;;;;;;2.88;100.00;100545.19;5014361;28;20452;-50
2021/05/08 01:44:47;;;;;;;0.30;0.20;;;;;;;2.76;100.00;100550.34;5014323;28;20444;-49
2021/05/08 01:47:13;;;;;;;0.30;0.20;;;;;;;2.51;100.00;100542.28;5014398;28;20871;-49
2021/05/08 01:49:39;;;;;;;0.30;0.20;;;;;;;2.44;100.00;100534.34;4983426;28;20480;-49
2021/05/08 01:52:06;;;;;;;0.30;0.20;;;;;;;2.60;99.55;100534.50;5014337;28;20453;-49
2021/05/08 01:54:32;;;;;;;0.30;0.10;;;;;;;2.50;100.00;100537.03;4996905;28;20485;-51
2021/05/08 01:56:58;;;;;;;0.30;0.20;;;;;;;2.41;100.00;100535.19;5003825;28;20519;-49
2021/05/08 01:59:24;;;;;;;0.30;0.20;;;;;;;2.59;100.00;100537.94;5010389;28;20938;-50
2021/05/08 02:01:50;;;;;;;0.30;0.20;;;;;;;2.58;100.00;100533.56;5022072;28;20462;-50
2021/05/08 02:04:16;;;;;;;0.30;0.20;;;;;;;2.52;100.00;100540.53;5004306;28;20455;-50
2021/05/08 02:06:48;;;;;;;0.30;0.20;;;;;;;2.28;100.00;100522.84;5013968;28;20453;-49
2021/05/08 02:09:14;;;;;;;0.30;0.20;;;;;;;2.36;100.00;100534.28;5014173;28;20511;-49
2021/05/08 02:11:40;;;;;;;0.30;0.20;;;;;;;2.40;100.00;100537.81;5013298;28;20531;-49
2021/05/08 02:14:06;;;;;;;0.30;0.20;;;;;;;2.33;100.00;100534.22;5014004;28;20833;-49
2021/05/08 02:16:32;;;;;;;0.30;0.10;;;;;;;2.30;100.00;100536.84;5013250;28;20448;-49
2021/05/08 02:18:58;;;;;;;0.30;0.20;;;;;;;2.13;100.00;100533.19;5008904;28;20482;-49
2021/05/08 02:21:24;;;;;;;1.47;1.23;;;;;;;2.06;100.00;100535.78;5004932;28;21007;-49
2021/05/08 02:23:50;;;;;;;0.30;0.10;;;;;;;2.07;100.00;100532.28;5013373;28;20452;-50
2021/05/08 02:26:16;;;;;;;0.30;0.20;;;;;;;2.01;100.00;100534.81;5013652;28;20452;-49
2021/05/08 02:28:42;;;;;;;0.30;0.20;;;;;;;2.04;100.00;100536.59;5013317;28;20526;-49
2021/05/08 02:31:09;;;;;;;0.30;0.17;;;;;;;2.20;100.00;100537.66;5013460;28;20491;-49
2021/05/08 02:33:35;;;;;;;0.30;0.20;;;;;;;2.02;100.00;100531.34;5014216;28;20452;-49
2021/05/08 02:36:01;;;;;;;0.30;0.20;;;;;;;2.09;100.00;100540.16;5013571;28;20449;-49
2021/05/08 02:38:27;;;;;;;0.30;0.20;;;;;;;2.02;100.00;100535.69;5013645;28;20452;-49
2021/05/08 02:40:53;;;;;;;0.30;0.20;;;;;;;1.77;100.00;100529.31;5013771;28;20484;-51
2021/05/08 02:43:19;;;;;;;0.30;0.20;;;;;;;2.01;100.00;100533.94;5012982;28;20871;-52
2021/05/08 02:45:45;;;;;;;0.30;0.10;;;;;;;1.92;100.00;100531.22;5014325;28;20494;-52
2021/05/08 02:48:12;;;;;;;0.30;0.20;;;;;;;1.94;100.00;100530.41;5007626;28;20453;-52
2021/05/08 02:50:38;;;;;;;0.30;0.10;;;;;;;1.79;100.00;100530.25;5005910;28;20827;-51
2021/05/08 02:53:04;;;;;;;0.30;0.20;;;;;;;1.62;100.00;100534.41;5013260;28;20456;-51
2021/05/08 02:55:30;;;;;;;0.30;0.20;;;;;;;1.86;100.00;100523.31;5013278;28;20488;-52
2021/05/08 02:58:01;;;;;;;0.30;0.20;;;;;;;1.69;100.00;100533.63;5000227;28;20456;-52
2021/05/08 03:00:27;;;;;;;0.53;0.50;;;;;;;1.59;100.00;100529.13;5013421;28;21033;-52
2021/05/08 03:02:54;;;;;;;0.30;0.20;;;;;;;1.47;100.00;100528.13;5018251;28;20468;-52
2021/05/08 03:05:20;;;;;;;0.30;0.17;;;;;;;1.62;100.00;100518.69;5006026;28;20478;-51
2021/05/08 03:07:46;;;;;;;0.30;0.20;;;;;;;1.56;100.00;100527.38;5013073;28;20452;-51
2021/05/08 03:10:13;;;;;;;0.30;0.10;;;;;;;1.47;100.00;100532.47;5013579;28;20476;-51
2021/05/08 03:12:39;;;;;;;0.30;0.10;;;;;;;1.75;100.00;100524.06;5013352;28;20518;-52
2021/05/08 03:15:06;;;;;;;0.30;0.20;;;;;;;1.94;100.00;100529.53;5013239;28;20484;-51
2021/05/08 03:17:33;;;;;;;0.30;0.10;;;;;;;1.84;100.00;100532.91;5012444;28;20958;-51
2021/05/08 03:19:59;;;;;;;0.30;0.20;;;;;;;1.79;100.00;100535.50;5000809;28;20469;-51
2021/05/08 03:22:25;;;;;;;0.27;0.17;;;;;;;1.59;100.00;100529.13;5012392;28;20452;-52
2021/05/08 03:24:53;;;;;;;0.30;0.20;;;;;;;1.78;100.00;100532.00;5013319;28;20540;-51
2021/05/08 03:27:19;;;;;;;0.30;0.20;;;;;;;1.64;100.00;100533.53;5012694;28;20945;-52
2021/05/08 03:29:46;;;;;;;0.20;0.20;;;;;;;1.79;100.00;100527.63;5015948;28;20575;-52
2021/05/08 03:32:12;;;;;;;0.30;0.20;;;;;;;1.80;100.00;100536.38;5016858;28;20444;-51
2021/05/08 03:34:39;;;;;;;0.20;0.10;;;;;;;1.74;100.00;100526.69;5016965;28;20484;-51
2021/05/08 03:37:05;;;;;;;0.30;0.20;;;;;;;1.67;100.00;100523.13;5016716;28;20525;-51
2021/05/08 03:39:31;;;;;;;0.23;0.10;;;;;;;1.72;100.00;100525.78;5016418;28;20482;-52
2021/05/08 03:41:57;;;;;;;0.30;0.10;;;;;;;1.73;100.00;100530.16;5016584;28;20531;-52
2021/05/08 03:44:23;;;;;;;0.20;0.10;;;;;;;1.45;100.00;100529.84;5016801;28;20455;-51
2021/05/08 03:46:50;;;;;;;0.30;0.10;;;;;;;1.61;100.00;100530.91;5016217;28;20455;-51
2021/05/08 03:49:16;;;;;;;0.30;0.20;;;;;;;1.65;100.00;100526.59;5003149;28;20945;-52
2021/05/08 03:51:42;;;;;;;0.20;0.20;;;;;;;1.61;100.00;100528.28;5016492;28;20463;-51
2021/05/08 03:54:10;;;;;;;0.27;0.20;;;;;;;1.59;100.00;100519.53;5016371;28;20492;-51
2021/05/08 03:56:36;;;;;;;0.20;0.10;;;;;;;1.62;100.00;100513.44;5009063;28;20469;-51
2021/05/08 03:59:02;;;;;;;0.30;0.13;;;;;;;1.30;100.00;100513.06;5010249;28;20932;-51
2021/05/08 04:01:29;;;;;;;0.20;0.10;;;;;;;1.40;100.00;100518.44;5020932;28;20468;-51
2021/05/08 04:03:55;;;;;;;0.30;0.20;;;;;;;1.62;100.00;100518.69;5009401;28;20504;-51
2021/05/08 04:06:21;;;;;;;0.20;0.10;;;;;;;1.68;100.00;100516.16;5015993;28;20814;-51
2021/05/08 04:08:48;;;;;;;0.20;0.13;;;;;;;1.82;100.00;100521.53;5016027;28;20449;-51
2021/05/08 04:11:14;;;;;;;0.30;0.10;;;;;;;1.75;100.00;100512.72;5015878;28;20904;-51
2021/05/08 04:13:40;;;;;;;0.40;0.30;;;;;;;1.54;100.00;100522.97;5015830;28;20456;-51
2021/05/08 04:16:06;;;;;;;0.23;0.20;;;;;;;1.80;100.00;100518.03;5015691;28;20453;-52
2021/05/08 04:18:32;;;;;;;0.30;0.10;;;;;;;1.63;100.00;100518.69;5015320;28;20449;-51
2021/05/08 04:20:58;;;;;;;0.20;0.10;;;;;;;1.63;100.00;100529.16;5003216;28;20480;-52
2021/05/08 04:23:25;;;;;;;0.30;0.10;;;;;;;1.58;100.00;100524.75;4998385;28;20452;-51
2021/05/08 04:25:51;;;;;;;0.20;0.10;;;;;;;1.69;100.00;100528.38;5015574;28;20483;-52
2021/05/08 04:28:17;;;;;;;0.30;0.10;;;;;;;1.80;100.00;100529.38;5015904;28;20499;-51
2021/05/08 04:30:43;;;;;;;0.20;0.10;;;;;;;1.65;100.00;100522.25;5015307;28;20468;-51
2021/05/08 04:33:18;;;;;;;0.20;0.10;;;;;;;1.58;100.00;100517.78;5015442;28;20503;-51
2021/05/08 04:35:44;;;;;;;0.20;0.10;;;;;;;1.71;100.00;100517.06;5015876;28;20489;-52
2021/05/08 04:38:10;;;;;;;0.23;0.10;;;;;;;1.87;100.00;100527.69;5015619;28;20457;-51
2021/05/08 04:40:36;;;;;;;0.20;0.10;;;;;;;1.98;100.00;100524.31;5014455;28;21071;-51
2021/05/08 04:43:02;;;;;;;0.20;0.10;;;;;;;1.95;100.00;100524.28;5015360;28;20947;-51
2021/05/08 04:45:28;;;;;;;0.20;0.10;;;;;;;2.36;100.00;100529.91;5015455;28;20449;-51
2021/05/08 04:47:56;;;;;;;0.20;0.10;;;;;;;2.95;98.79;100525.97;5012956;28;20502;-51
2021/05/08 04:50:23;;;;;;;0.20;0.10;;;;;;;3.63;95.91;100525.41;5005485;28;20500;-51
2021/05/08 04:52:50;;;;;;;0.40;0.40;;;;;;;4.49;90.83;100536.06;5015083;28;20511;-52
2021/05/08 04:55:16;;;;;;;0.30;0.17;;;;;;;5.14;86.69;100535.09;5015118;28;20492;-52
2021/05/08 04:57:43;;;;;;;0.30;0.20;;;;;;;5.26;85.78;100520.13;5002139;28;20488;-52
2021/05/08 05:00:13;;;;;;;0.30;0.10;;;;;;;5.70;83.46;100537.53;5014687;28;20845;-52
2021/05/08 05:02:43;;;;;;;0.30;0.20;;;;;;;5.57;83.22;100536.72;5022445;28;20453;-52
2021/05/08 05:05:12;;;;;;;0.30;0.20;;;;;;;6.08;83.86;100534.72;4988736;28;20962;-52
2021/05/08 05:07:41;;;;;;;0.30;0.20;;;;;;;6.08;83.29;100536.47;5014395;28;20880;-52
2021/05/08 05:10:08;;;;;;;0.30;0.20;;;;;;;6.30;83.07;100532.78;5014692;28;20550;-52
2021/05/08 05:12:34;;;;;;;0.30;0.20;;;;;;;6.46;82.63;100534.44;5014043;28;20506;-52
2021/05/08 05:15:00;;;;;;;0.30;0.20;;;;;;;6.80;81.44;100537.66;5013939;28;20499;-52
2021/05/08 05:17:27;;;;;;;0.30;0.20;;;;;;;7.21;79.78;100532.84;5013631;28;20459;-52
2021/05/08 05:19:54;;;;;;;0.80;0.80;;;;;;;7.03;79.27;100533.94;4984859;28;20575;-52
2021/05/08 05:22:21;;;;;;;0.30;0.20;;;;;;;6.98;80.35;100541.00;4994949;28;20449;-52
2021/05/08 05:24:47;;;;;;;0.40;0.40;;;;;;;7.08;80.59;100540.91;5013869;28;20502;-52
2021/05/08 05:27:13;;;;;;;0.30;0.20;;;;;;;7.23;80.41;100533.72;5013361;28;20499;-52
2021/05/08 05:29:39;;;;;;;0.30;0.20;;;;;;;7.34;79.44;100538.00;5013213;28;20530;-52
2021/05/08 05:32:05;;;;;;;0.30;0.20;;;;;;;7.37;79.13;100529.13;5013570;28;20452;-52
2021/05/08 05:34:32;;;;;;;0.30;0.20;;;;;;;7.80;77.75;100529.47;5013204;28;21028;-52
2021/05/08 05:36:58;;;;;;;0.40;0.37;;;;;;;7.66;77.86;100539.34;5013629;28;20491;-52
2021/05/08 05:39:24;;;;;;;0.60;0.60;;;;;;;7.91;77.12;100537.28;5015069;28;20857;-52
2021/05/08 05:41:51;;;;;;;0.30;0.20;;;;;;;7.98;77.82;100550.41;5013748;28;20514;-52
2021/05/08 05:44:17;;;;;;;0.30;0.20;;;;;;;7.75;77.69;100546.31;5013526;28;20554;-52
2021/05/08 05:46:43;;;;;;;0.30;0.20;;;;;;;8.27;76.67;100538.53;5013195;28;20463;-52
2021/05/08 05:49:09;;;;;;;0.67;0.67;;;;;;;8.02;77.01;100545.94;5001018;28;20872;-52
2021/05/08 05:51:36;;;;;;;0.30;0.20;;;;;;;8.16;77.74;100551.91;5010959;28;20838;-53
2021/05/08 05:54:02;;;;;;;0.30;0.20;;;;;;;8.81;74.58;100544.72;4995285;28;20453;-53
2021/05/08 05:56:28;;;;;;;0.30;0.20;;;;;;;8.49;75.54;100550.53;5007024;28;20449;-53
2021/05/08 05:58:55;;;;;;;0.30;0.20;;;;;;;9.04;73.27;100546.09;5005613;28;21020;-53
2021/05/08 06:01:21;;;;;;;0.30;0.20;;;;;;;8.68;75.73;100544.97;4999201;28;20525;-53
2021/05/08 06:03:47;;;;;;;0.30;0.20;;;;;;;8.44;75.10;100555.06;5006751;28;20522;-53
2021/05/08 06:06:14;;;;;;;0.30;0.20;;;;;;;8.97;74.76;100548.00;5012676;28;20445;-53
2021/05/08 06:08:40;;;;;;;0.30;0.20;;;;;;;8.67;76.21;100552.03;5012732;28;20456;-53
2021/05/08 06:11:06;;;;;;;0.30;0.20;;;;;;;8.50;75.69;100539.09;5010585;28;20996;-52
2021/05/08 06:13:33;;;;;;;0.30;0.20;;;;;;;8.53;77.48;100531.06;5003620;28;20452;-53
2021/05/08 06:16:00;;;;;;;0.30;0.20;;;;;;;8.81;75.71;100528.84;4999421;28;20505;-53
2021/05/08 06:18:26;;;;;;;0.30;0.20;;;;;;;8.85;75.52;100529.66;5012137;28;20818;-52
2021/05/08 06:20:53;;;;;;;1.03;1.03;;;;;;;8.67;75.43;100532.63;5004426;28;20472;-53
2021/05/08 06:23:19;;;;;;;0.30;0.20;;;;;;;8.03;77.89;100537.09;5000349;28;20461;-52
2021/05/08 06:25:46;;;;;;;0.30;0.20;;;;;;;8.86;77.71;100529.63;4993192;28;20450;-54
2021/05/08 06:28:12;;;;;;;1.27;1.23;;;;;;;8.44;76.65;100533.88;5007327;28;20477;-53
2021/05/08 06:30:39;;;;;;;0.30;0.20;;;;;;;8.38;75.51;100530.44;5012517;28;20507;-53
2021/05/08 06:33:06;;;;;;;0.30;0.20;;;;;;;8.26;76.95;100527.06;5012419;28;20452;-52
2021/05/08 06:35:32;;;;;;;0.30;0.20;;;;;;;8.79;75.38;100513.88;5012406;28;20495;-53
2021/05/08 06:37:59;;;;;;;0.30;0.20;;;;;;;8.46;75.70;100517.94;5012322;28;20926;-52
2021/05/08 06:40:25;;;;;;;0.30;0.20;;;;;;;8.55;77.65;100517.81;5012183;28;20900;-53
2021/05/08 06:42:51;;;;;;;0.30;0.20;;;;;;;8.70;76.41;100519.31;5012269;28;20509;-53
2021/05/08 06:45:18;;;;;;;0.40;0.20;;;;;;;8.70;78.34;100509.59;5012615;28;20448;-53
2021/05/08 06:47:46;;;;;;;2.43;1.70;;;;;;;9.78;73.60;100504.81;5011688;28;20453;-53
2021/05/08 06:50:12;;;;;;;0.30;0.20;;;;;;;9.97;73.55;100499.94;5000347;28;21020;-53
2021/05/08 06:52:39;;;;;;;0.30;0.20;;;;;;;10.08;73.51;100513.84;5012170;28;20503;-53
2021/05/08 06:55:05;;;;;;;0.30;0.20;;;;;;;9.83;73.95;100514.44;5012252;28;20484;-53
2021/05/08 06:57:33;;;;;;;0.30;0.20;;;;;;;10.20;73.80;100517.13;4998957;28;20453;-53
2021/05/08 07:00:00;;;;;;;0.30;0.20;;;;;;;9.01;76.71;100507.25;5012317;28;20477;-52
2021/05/08 07:02:26;;;;;;;0.30;0.20;;;;;;;8.73;77.65;100503.34;5021554;28;20513;-52
2021/05/08 07:04:52;;;;;;;0.30;0.20;;;;;;;8.80;78.10;100508.53;4996036;28;20487;-53
2021/05/08 07:07:18;;;;;;;0.30;0.20;;;;;;;9.06;78.54;100504.53;5010847;28;20943;-52
2021/05/08 07:09:45;;;;;;;0.30;0.20;;;;;;;9.50;77.07;100511.59;5016390;28;20480;-53
2021/05/08 07:12:11;;;;;;;0.30;0.20;;;;;;;9.71;75.20;100519.09;5016045;28;20452;-53
2021/05/08 07:14:38;;;;;;;0.30;0.20;;;;;;;10.21;74.63;100519.78;5015983;28;20495;-53
2021/05/08 07:17:04;;;;;;;0.47;0.47;;;;;;;9.72;76.36;100523.50;5015886;28;20445;-52
2021/05/08 07:19:31;;;;;;;0.30;0.20;;;;;;;9.79;76.74;100519.81;5007498;28;20868;-53
2021/05/08 07:22:01;;;;;;;0.30;0.20;;;;;;;9.55;76.05;100514.16;5011584;28;20981;-53
2021/05/08 07:24:28;;;;;;;0.30;0.20;;;;;;;9.80;74.27;100526.00;5016089;28;20466;-52
2021/05/08 07:26:57;;;;;;;0.30;0.20;;;;;;;10.07;75.68;100521.88;5015819;28;20449;-53
2021/05/08 07:29:24;;;;;;;0.30;0.20;;;;;;;10.24;76.11;100511.75;5015887;28;20490;-53
2021/05/08 07:31:51;;;;;;;0.30;0.20;;;;;;;10.75;75.00;100514.03;4998088;28;20456;-53
2021/05/08 07:34:17;;;;;;;0.30;0.20;;;;;;;10.02;76.07;100506.03;5015567;28;20463;-53
2021/05/08 07:36:43;;;;;;;0.30;0.20;;;;;;;10.00;76.90;100505.19;5015631;28;20459;-52
2021/05/08 07:39:10;;;;;;;0.30;0.30;;;;;;;10.39;77.09;100508.72;5015676;28;20510;-53
2021/05/08 07:41:36;;;;;;;0.30;0.20;;;;;;;10.80;74.89;100509.47;5015307;28;20982;-53
2021/05/08 07:44:03;;;;;;;0.30;0.20;;;;;;;10.99;74.70;100501.91;5015616;28;20452;-53
2021/05/08 07:46:32;;;;;;;0.30;0.20;;;;;;;10.79;75.35;100505.06;5015362;28;20448;-53
2021/05/08 07:48:58;;;;;;;0.30;0.20;;;;;;;11.08;73.57;100498.97;5004298;28;20460;-53
2021/05/08 07:51:24;;;;;;;0.30;0.20;;;;;;;11.42;72.92;100493.59;5012508;28;20468;-53
2021/05/08 07:53:50;;;;;;;0.30;0.20;;;;;;;11.14;73.98;100497.94;5014938;28;20452;-53
2021/05/08 07:56:17;;;;;;;6.90;2.10;;;;;;;11.23;72.48;100490.56;5014782;28;20488;-53
2021/05/08 07:58:43;;;;;;;0.30;0.20;;;;;;;11.02;71.05;100488.50;5004297;28;20461;-53
2021/05/08 08:01:09;;;;;;;0.30;0.20;;;;;;;11.09;71.56;100487.41;5014645;28;20480;-53
2021/05/08 08:03:35;;;;;;;1.17;1.17;;;;;;;11.08;71.21;100490.09;5012255;28;20508;-53
2021/05/08 08:06:01;;;;;;;0.30;0.20;;;;;;;11.52;70.75;100483.56;5013002;28;20456;-53
2021/05/08 08:08:28;;;;;;;0.43;0.43;;;;;;;11.53;71.31;100486.16;5014873;28;20478;-53
2021/05/08 08:10:56;;;;;;;0.30;0.20;;;;;;;11.66;71.52;100481.34;5014851;28;20526;-52
2021/05/08 08:13:22;;;;;;;0.40;0.40;;;;;;;11.57;71.49;100474.50;5014882;28;20455;-53
2021/05/08 08:15:49;;;;;;;0.30;0.20;;;;;;;11.53;73.04;100464.88;5013486;28;20489;-53
2021/05/08 08:18:15;;;;;;;0.30;0.20;;;;;;;11.46;72.95;100467.75;5014377;28;20452;-53
2021/05/08 08:20:41;;;;;;;0.67;0.67;;;;;;;11.56;72.57;100467.44;5000923;28;20476;-53
2021/05/08 08:23:07;;;;;;;0.30;0.20;;;;;;;11.84;72.50;100462.16;5014641;28;20452;-52
2021/05/08 08:25:33;;;;;;;0.30;0.20;;;;;;;11.74;72.91;100457.13;5014452;28;20536;-53
2021/05/08 08:27:59;;;;;;;0.30;0.20;;;;;;;11.68;73.42;100458.22;5014385;28;20491;-53
2021/05/08 08:30:25;;;;;;;0.30;0.20;;;;;;;11.50;72.00;100456.06;5014048;28;20472;-52
2021/05/08 08:32:52;;;;;;;4.90;1.80;;;;;;;11.61;72.24;100453.09;5008370;28;20453;-53
2021/05/08 08:35:18;;;;;;;0.30;0.20;;;;;;;11.77;71.60;100454.38;4994834;28;20512;-53
2021/05/08 08:37:44;;;;;;;0.40;0.20;;;;;;;11.70;71.42;100450.16;5006445;28;20456;-53
2021/05/08 08:40:14;;;;;;;0.30;0.20;;;;;;;11.89;71.33;100451.38;5014738;28;20500;-53
2021/05/08 08:42:40;;;;;;;1.37;1.07;;;;;;;11.86;69.95;100451.47;5014107;28;20452;-53
2021/05/08 08:45:07;;;;;;;3.20;1.80;;;;;;;12.01;67.47;100450.09;5014118;28;20460;-53
2021/05/08 08:47:35;;;;;;;0.30;0.20;;;;;;;11.86;67.83;100448.81;5013949;28;20954;-53
2021/05/08 08:50:08;;;;;;;0.30;0.20;;;;;;;12.11;68.47;100443.56;5000794;28;20560;-53
2021/05/08 08:52:35;;;;;;;1.03;1.03;;;;;;;12.27;69.79;100446.59;5013932;28;20579;-53
2021/05/08 08:55:02;;;;;;;0.30;0.20;;;;;;;12.03;70.47;100438.47;5013841;28;20550;-53
2021/05/08 08:57:38;;;;;;;0.30;0.20;;;;;;;12.05;71.23;100433.09;5000484;28;20511;-53
2021/05/08 09:00:12;;;;;;;0.30;0.20;;;;;;;12.11;72.08;100425.78;5014304;28;20471;-53
2021/05/08 09:02:39;;;;;;;0.30;0.20;;;;;;;12.20;71.60;100421.06;5004630;28;20853;-53
2021/05/08 09:05:09;;;;;;;0.40;0.20;;;;;;;12.35;70.93;100429.44;4988326;28;20428;-53
2021/05/08 09:07:38;;;;;;;0.70;0.70;;;;;;;12.63;70.67;100429.38;5013641;28;20462;-53
2021/05/08 09:10:08;;;;;;;0.30;0.20;;;;;;;12.50;70.79;100424.50;5013489;28;20477;-52
2021/05/08 09:12:47;;;;;;;0.30;0.20;;;;;;;12.69;69.86;100417.59;5013874;28;20518;-52
2021/05/08 09:15:14;;;;;;;0.30;0.20;;;;;;;13.03;70.47;100420.81;5013399;28;20542;-52
2021/05/08 09:17:44;;;;;;;0.30;0.20;;;;;;;12.87;68.03;100416.06;4996437;28;20465;-52
2021/05/08 09:20:12;;;;;;;0.30;0.20;;;;;;;13.02;68.55;100411.06;4999569;28;20512;-52
2021/05/08 09:22:43;;;;;;;0.40;0.30;;;;;;;13.22;66.12;100407.69;5001442;28;20448;-53
2021/05/08 09:25:19;;;;;;;0.40;0.30;;;;;;;13.22;66.21;100405.03;5013363;28;20821;-53
2021/05/08 09:27:46;;;;;;;0.30;0.20;;;;;;;13.19;66.73;100412.28;5013252;28;20456;-52
2021/05/08 09:30:14;;;;;;;0.63;0.63;;;;;;;13.24;68.02;100411.16;4995818;28;20518;-52
2021/05/08 09:32:48;;;;;;;0.30;0.20;;;;;;;13.50;67.99;100398.63;5013329;28;20451;-52
2021/05/08 09:35:24;;;;;;;0.40;0.30;;;;;;;13.93;66.27;100387.09;5013021;28;20958;-53
2021/05/08 09:38:04;;;;;;;0.30;0.30;;;;;;;14.20;64.72;100395.78;5013322;28;20440;-52
2021/05/08 09:40:31;;;;;;;1.23;1.13;;;;;;;14.07;63.71;100386.53;5013082;28;20479;-52
2021/05/08 09:42:59;;;;;;;0.30;0.20;;;;;;;14.42;62.44;100382.38;5013232;28;20449;-52
2021/05/08 09:45:26;;;;;;;1.73;0.70;;;;;;;14.48;61.59;100376.78;5013024;28;20467;-53
2021/05/08 09:47:54;;;;;;;1.17;0.70;;;;;;;14.97;62.64;100378.19;5011425;28;20448;-52
2021/05/08 09:50:25;;;;;;;0.30;0.20;;;;;;;14.44;61.51;100362.69;5002386;28;21007;-52
2021/05/08 09:52:53;;;;;;;0.30;0.20;;;;;;;14.38;61.74;100362.03;5012993;28;20511;-52
2021/05/08 09:55:24;;;;;;;0.43;0.43;;;;;;;14.38;61.61;100360.22;5012757;28;20519;-52
2021/05/08 09:58:08;;;;;;;0.30;0.20;;;;;;;14.07;58.94;100366.00;4982281;28;20535;-52
2021/05/08 10:00:42;;;;;;;0.30;0.20;;;;;;;14.83;58.77;100359.19;5013040;28;20464;-52
2021/05/08 10:03:13;;;;;;;0.37;0.30;;;;;;;15.30;57.00;100348.09;5015539;28;20523;-52
2021/05/08 10:06:06;;;;;;;0.30;0.20;;;;;;;15.29;55.53;100347.22;5008125;28;20491;-53
2021/05/08 10:08:32;;;;;;;0.63;0.50;;;;;;;15.21;54.06;100335.13;4995114;28;20444;-53
2021/05/08 10:11:01;;;;;;;0.30;0.20;;;;;;;15.35;55.91;100327.31;5012858;28;20465;-53
2021/05/08 10:13:28;;;;;;;0.33;0.27;;;;;;;15.35;54.09;100322.84;5012806;28;20972;-53
2021/05/08 10:15:58;;;;;;;0.30;0.20;;;;;;;15.41;55.35;100319.88;5012794;28;20492;-52
2021/05/08 10:18:25;;;;;;;0.30;0.20;;;;;;;15.09;53.33;100321.41;5012874;28;20527;-52
2021/05/08 10:20:53;;;;;;;1.10;1.03;;;;;;;15.57;55.36;100321.81;4999305;28;20576;-53
2021/05/08 10:23:26;;;;;;;1.17;0.93;;;;;;;15.10;53.57;100317.78;5012390;28;20954;-52
2021/05/08 10:25:53;;;;;;;0.40;0.20;;;;;;;15.80;54.81;100308.19;5012644;28;20441;-52
2021/05/08 10:28:19;;;;;;;0.40;0.30;;;;;;;15.65;53.18;100301.78;5012602;28;20452;-53
2021/05/08 10:30:46;;;;;;;0.30;0.20;;;;;;;15.42;53.29;100307.34;5012319;28;20495;-52
2021/05/08 10:33:21;;;;;;;0.33;0.23;;;;;;;15.33;54.44;100289.88;5012178;28;20452;-53
2021/05/08 10:35:50;;;;;;;0.40;0.40;;;;;;;15.82;53.25;100292.88;5011995;28;20492;-52
2021/05/08 10:38:23;;;;;;;0.40;0.20;;;;;;;15.57;52.70;100293.19;5011659;28;20449;-52
2021/05/08 10:40:59;;;;;;;0.30;0.20;;;;;;;15.39;53.62;100286.94;4995697;28;20480;-52
2021/05/08 10:43:53;;;;;;;0.30;0.20;;;;;;;15.21;53.30;100292.28;5012311;28;20444;-52
2021/05/08 10:46:24;;;;;;;0.40;0.20;;;;;;;15.58;53.69;100283.34;5012315;28;20440;-52
2021/05/08 10:49:06;;;;;;;0.30;0.20;;;;;;;15.66;53.90;100278.53;5003073;28;20453;-52
2021/05/08 10:52:01;;;;;;;0.40;0.30;;;;;;;16.37;50.56;100271.28;5010488;28;20468;-52
2021/05/08 10:54:54;;;;;;;0.30;0.20;;;;;;;16.27;50.38;100265.50;5011871;28;20448;-53
2021/05/08 10:57:26;;;;;;;0.40;0.30;;;;;;;15.92;50.85;100258.44;4999585;28;20453;-52
2021/05/08 11:00:05;;;;;;;0.40;0.20;;;;;;;16.03;50.12;100253.38;4992718;28;20556;-52
2021/05/08 11:02:40;;;;;;;0.30;0.20;;;;;;;16.36;49.53;100248.09;5017253;28;20463;-52
2021/05/08 11:05:28;;;;;;;0.40;0.20;;;;;;;16.87;50.21;100244.44;4985079;28;20455;-53
2021/05/08 11:07:55;;;;;;;0.40;0.30;;;;;;;17.14;49.32;100247.41;5012184;28;20460;-53
2021/05/08 11:10:33;;;;;;;0.40;0.20;;;;;;;16.72;48.27;100249.75;5012023;28;21020;-53
2021/05/08 11:13:16;;;;;;;0.40;0.30;;;;;;;16.59;47.87;100244.19;4992843;28;20461;-53
2021/05/08 11:15:51;;;;;;;0.40;0.20;;;;;;;16.79;48.16;100241.28;4991704;28;20503;-52
2021/05/08 11:18:30;;;;;;;0.40;0.20;;;;;;;17.01;48.50;100227.56;4994854;28;20945;-53
2021/05/08 11:21:30;;;;;;;0.40;0.20;;;;;;;16.81;50.03;100233.16;4999136;28;20479;-52
2021/05/08 11:24:04;;;;;;;0.40;0.20;;;;;;;16.72;49.34;100223.81;4992376;28;20460;-52
2021/05/08 11:26:40;;;;;;;0.60;0.60;;;;;;;17.19;49.63;100220.25;5012025;28;20451;-52
2021/05/08 11:29:24;;;;;;;0.40;0.20;;;;;;;16.22;50.00;100221.13;5012179;28;20514;-52
2021/05/08 11:31:55;;;;;;;0.40;0.20;;;;;;;16.41;50.64;100212.94;5011798;28;20805;-52